Time;durP1;ratioP1;P1;durP2;ratioP2;P2;SDS_P1;SDS_P2;PMS_P1;PMS_P2;Temp;Humidity;BMP_temperature;BMP_pressure;BME280_temperature;BME280_humidity;BME280_pressure;Samples;Min_cycle;Max_cycle;Signal;HPM_P1;HPM_P2
2021/06/21 00:01:15;;;;;;;6.23;2.10;;;;;;;16.70;100.00;95085.78;4362856;32;20627;-78
2021/06/21 00:03:40;;;;;;;11.00;2.90;;;;;;;16.79;100.00;95087.53;4362665;32;20255;-78
2021/06/21 00:06:05;;;;;;;9.63;2.72;;;;;;;16.78;100.00;95088.50;4362340;32;20273;-78
2021/06/21 00:08:31;;;;;;;6.70;2.33;;;;;;;16.74;100.00;95095.00;4363267;32;20252;-79
2021/06/21 00:10:56;;;;;;;7.50;2.97;;;;;;;16.71;100.00;95090.03;4362928;32;20229;-79
2021/06/21 00:13:23;;;;;;;8.30;2.87;;;;;;;16.71;100.00;95097.88;4362194;32;20250;-79
2021/06/21 00:15:48;;;;;;;9.43;2.55;;;;;;;16.68;100.00;95095.56;4362043;32;20249;-79
2021/06/21 00:18:14;;;;;;;13.80;3.20;;;;;;;16.74;100.00;95086.34;4362887;32;20243;-79
2021/06/21 00:20:40;;;;;;;19.48;3.42;;;;;;;16.65;100.00;95088.88;4362752;32;20225;-79
2021/06/21 00:23:05;;;;;;;7.60;2.75;;;;;;;16.69;100.00;95094.63;4351408;32;740215;-79
2021/06/21 00:25:31;;;;;;;8.17;3.20;;;;;;;16.67;100.00;95097.38;4373945;32;20228;-79
2021/06/21 00:27:57;;;;;;;8.60;2.50;;;;;;;16.69;100.00;95108.50;4373595;32;20632;-79
2021/06/21 00:30:24;;;;;;;7.87;3.33;;;;;;;16.64;100.00;95102.88;4362763;32;20229;-79
2021/06/21 00:32:50;;;;;;;11.80;2.60;;;;;;;16.51;100.00;95101.63;4373619;32;20241;-79
2021/06/21 00:35:16;;;;;;;8.80;2.70;;;;;;;16.43;100.00;95103.19;4362318;32;20261;-80
2021/06/21 00:37:42;;;;;;;7.68;2.80;;;;;;;16.37;100.00;95095.94;4375002;32;20232;-79
2021/06/21 00:40:11;;;;;;;12.73;3.13;;;;;;;16.50;100.00;95100.81;4374068;32;20260;-79
2021/06/21 00:42:40;;;;;;;10.80;3.05;;;;;;;16.49;100.00;95100.94;4362970;32;20228;-79
2021/06/21 00:45:07;;;;;;;9.45;2.65;;;;;;;16.45;100.00;95110.88;4373660;32;20302;-80
2021/06/21 00:47:34;;;;;;;15.02;2.78;;;;;;;16.40;100.00;95115.75;4373341;32;20221;-79
2021/06/21 00:49:59;;;;;;;12.57;2.80;;;;;;;16.31;100.00;95109.59;4373415;32;20320;-80
2021/06/21 00:52:25;;;;;;;12.53;2.90;;;;;;;16.31;100.00;95103.53;4375520;32;20252;-79
2021/06/21 00:54:59;;;;;;;9.20;2.60;;;;;;;16.44;100.00;95098.78;4363999;32;20240;-79
2021/06/21 00:57:26;;;;;;;8.30;2.35;;;;;;;16.36;100.00;95088.25;4364322;32;20236;-79
2021/06/21 00:59:51;;;;;;;9.15;2.20;;;;;;;16.52;100.00;95098.88;4363293;33;20268;-79
2021/06/21 01:02:19;;;;;;;12.45;2.78;;;;;;;16.60;100.00;95098.94;4361856;32;20572;-79
2021/06/21 01:04:46;;;;;;;7.32;2.15;;;;;;;16.62;100.00;95111.88;4373308;32;20555;-79
2021/06/21 01:07:11;;;;;;;9.40;2.28;;;;;;;16.64;100.00;95113.34;4374233;32;20243;-79
2021/06/21 01:09:37;;;;;;;5.53;2.03;;;;;;;16.72;100.00;95103.94;4363982;32;20217;-79
2021/06/21 01:12:11;;;;;;;10.77;2.83;;;;;;;16.77;100.00;95101.75;4380134;32;20221;-79
2021/06/21 01:14:48;;;;;;;7.53;2.45;;;;;;;16.73;100.00;95114.25;4380232;32;20224;-79
2021/06/21 01:17:22;;;;;;;9.43;2.75;;;;;;;16.56;100.00;95112.47;4367785;33;20678;-79
2021/06/21 01:20:14;;;;;;;12.93;2.92;;;;;;;16.53;100.00;95113.56;4368333;32;20270;-80
2021/06/21 01:23:03;;;;;;;7.22;2.45;;;;;;;16.50;100.00;95113.88;4378430;32;20221;-79
2021/06/21 01:25:32;;;;;;;9.82;2.62;;;;;;;16.63;100.00;95111.72;4365796;32;20240;-80
2021/06/21 01:28:03;;;;;;;6.77;2.60;;;;;;;16.60;100.00;95104.16;4365975;32;20274;-79
2021/06/21 01:31:01;;;;;;;10.10;2.60;;;;;;;16.49;100.00;95099.16;4366146;32;20228;-80
2021/06/21 01:33:29;;;;;;;11.07;2.83;;;;;;;16.41;100.00;95099.91;4362626;32;20314;-79
2021/06/21 01:36:00;;;;;;;11.12;2.92;;;;;;;16.35;100.00;95095.28;4375993;32;20548;-79
2021/06/21 01:38:30;;;;;;;17.47;2.10;;;;;;;16.20;100.00;95097.59;4375484;32;20593;-79
2021/06/21 01:40:59;;;;;;;8.90;2.50;;;;;;;16.19;100.00;95106.38;4363423;33;20248;-79
2021/06/21 01:43:29;;;;;;;8.73;2.40;;;;;;;16.10;100.00;95109.88;4374913;32;20620;-79
2021/06/21 01:45:56;;;;;;;9.98;2.15;;;;;;;16.07;100.00;95114.56;4363157;32;20662;-79
2021/06/21 01:48:24;;;;;;;11.52;2.60;;;;;;;16.06;100.00;95111.12;4362387;33;20225;-79
2021/06/21 01:50:52;;;;;;;7.90;2.40;;;;;;;16.10;100.00;95117.72;4374386;32;20229;-80
2021/06/21 01:53:21;;;;;;;8.85;2.62;;;;;;;16.05;100.00;95117.31;4361833;32;20225;-79
2021/06/21 01:55:54;;;;;;;8.40;2.50;;;;;;;16.09;100.00;95105.63;4373742;32;20260;-79
2021/06/21 01:58:20;;;;;;;7.22;1.95;;;;;;;16.13;100.00;95111.34;4362712;32;20259;-79
2021/06/21 02:00:47;;;;;;;9.95;2.37;;;;;;;16.31;100.00;95114.00;4372945;32;20260;-79
2021/06/21 02:03:13;;;;;;;8.63;2.25;;;;;;;16.46;100.00;95104.69;4372986;32;20245;-80
2021/06/21 02:05:41;;;;;;;6.95;2.20;;;;;;;16.48;100.00;95113.19;4361898;32;20284;-79
2021/06/21 02:08:12;;;;;;;9.60;2.58;;;;;;;16.38;100.00;95110.66;4360986;33;20264;-79
2021/06/21 02:10:39;;;;;;;10.32;2.60;;;;;;;16.40;100.00;95102.69;4373321;32;20598;-79
2021/06/21 02:13:06;;;;;;;6.80;2.40;;;;;;;16.33;100.00;95101.63;4373110;32;20598;-79
2021/06/21 02:15:32;;;;;;;6.87;2.50;;;;;;;16.13;100.00;95099.13;4360409;33;20229;-79
2021/06/21 02:17:59;;;;;;;8.52;2.50;;;;;;;16.28;100.00;95101.22;4362321;32;20221;-79
2021/06/21 02:20:25;;;;;;;7.45;2.55;;;;;;;16.29;100.00;95092.44;4361629;32;20233;-79
2021/06/21 02:22:50;;;;;;;6.50;2.50;;;;;;;16.36;100.00;95099.53;4361655;32;20256;-80
2021/06/21 02:25:17;;;;;;;11.27;2.40;;;;;;;16.29;100.00;95105.50;4372384;32;20268;-80
2021/06/21 02:27:44;;;;;;;6.50;2.55;;;;;;;16.31;100.00;95106.97;4372611;32;20253;-80
2021/06/21 02:30:12;;;;;;;9.50;2.50;;;;;;;16.15;100.00;95107.63;4372627;32;20248;-79
2021/06/21 02:32:40;;;;;;;9.25;2.80;;;;;;;16.21;100.00;95109.66;4372430;32;20221;-79
2021/06/21 02:35:09;;;;;;;15.38;2.60;;;;;;;16.10;100.00;95115.09;4361230;32;20255;-80
2021/06/21 02:37:34;;;;;;;8.82;2.67;;;;;;;16.15;100.00;95110.25;4372324;32;20271;-80
2021/06/21 02:40:00;;;;;;;9.67;2.50;;;;;;;16.08;100.00;95101.34;4373143;32;20225;-79
2021/06/21 02:42:27;;;;;;;10.63;2.50;;;;;;;16.04;100.00;95100.00;4372367;32;20260;-79
2021/06/21 02:44:52;;;;;;;9.02;2.20;;;;;;;16.04;100.00;95097.38;4372672;32;20730;-79
2021/06/21 02:47:19;;;;;;;9.20;2.58;;;;;;;16.10;100.00;95093.37;4372335;32;20233;-79
2021/06/21 02:49:45;;;;;;;8.35;2.22;;;;;;;16.20;100.00;95096.72;4372010;32;20572;-79
2021/06/21 02:52:16;;;;;;;7.13;2.13;;;;;;;16.32;100.00;95097.38;4362080;32;20221;-80
2021/06/21 02:54:52;;;;;;;8.00;2.15;;;;;;;16.19;100.00;95098.53;4373116;32;20221;-79
2021/06/21 02:57:26;;;;;;;14.60;3.17;;;;;;;16.26;100.00;95103.19;4372458;32;20255;-79
2021/06/21 02:59:54;;;;;;;7.17;2.43;;;;;;;16.14;100.00;95116.44;4361714;32;20664;-79
2021/06/21 03:02:20;;;;;;;5.78;2.10;;;;;;;16.19;100.00;95110.78;4372645;32;20225;-79
2021/06/21 03:04:46;;;;;;;8.45;2.45;;;;;;;16.32;100.00;95092.97;4374503;32;20295;-79
2021/06/21 03:07:14;;;;;;;11.27;2.75;;;;;;;16.25;100.00;95088.47;4363165;32;20247;-79
2021/06/21 03:09:43;;;;;;;7.25;2.28;;;;;;;16.06;100.00;95076.34;4362605;32;20325;-79
2021/06/21 03:12:10;;;;;;;8.70;2.30;;;;;;;16.18;100.00;95057.72;4362520;32;20220;-79
2021/06/21 03:14:37;;;;;;;8.25;2.40;;;;;;;16.02;100.00;95046.25;4363390;32;20306;-79
2021/06/21 03:17:06;;;;;;;7.78;2.47;;;;;;;16.03;100.00;95053.97;4362260;33;20225;-79
2021/06/21 03:19:32;;;;;;;7.50;2.33;;;;;;;15.95;100.00;95072.16;4376039;32;20233;-80
2021/06/21 03:21:58;;;;;;;8.15;2.33;;;;;;;16.18;100.00;95091.66;4378734;27;20256;-75
2021/06/21 03:24:24;;;;;;;8.20;2.67;;;;;;;16.26;100.00;95118.84;4369154;32;20227;-76
2021/06/21 03:26:49;;;;;;;5.55;1.95;;;;;;;16.35;100.00;95123.19;4361357;32;20696;-77
2021/06/21 03:29:17;;;;;;;6.97;2.07;;;;;;;16.32;100.00;95126.12;4359855;32;20229;-76
2021/06/21 03:31:44;;;;;;;10.32;2.35;;;;;;;16.31;100.00;95130.50;4359106;33;20271;-76
2021/06/21 03:34:11;;;;;;;9.10;2.08;;;;;;;16.31;100.00;95121.84;4359176;32;20228;-75
2021/06/21 03:36:37;;;;;;;10.13;2.10;;;;;;;16.43;100.00;95128.53;4359130;32;20338;-77
2021/06/21 03:39:02;;;;;;;8.47;2.37;;;;;;;16.32;100.00;95124.31;4358120;33;20251;-77
2021/06/21 03:41:28;;;;;;;4.90;1.70;;;;;;;16.28;100.00;95132.56;4359240;33;20280;-76
2021/06/21 03:43:53;;;;;;;5.37;1.90;;;;;;;16.41;100.00;95126.03;4359481;32;20598;-76
2021/06/21 03:46:18;;;;;;;6.40;2.12;;;;;;;16.46;100.00;95125.59;4358809;33;20220;-76
2021/06/21 03:48:44;;;;;;;5.03;2.00;;;;;;;16.50;100.00;95129.56;4357757;32;20684;-76
2021/06/21 03:51:10;;;;;;;7.83;2.03;;;;;;;16.47;100.00;95135.09;4359477;32;20218;-77
2021/06/21 03:53:36;;;;;;;5.30;2.10;;;;;;;16.57;100.00;95137.63;4356029;33;20229;-77
2021/06/21 03:56:01;;;;;;;11.82;2.30;;;;;;;16.62;100.00;95133.59;4348479;33;20253;-77
2021/06/21 03:58:27;;;;;;;9.67;2.07;;;;;;;16.67;100.00;95133.97;4358834;32;20223;-76
2021/06/21 04:00:53;;;;;;;9.02;2.30;;;;;;;16.64;100.00;95121.19;4360258;32;20228;-76
2021/06/21 04:03:18;;;;;;;8.67;2.53;;;;;;;16.63;100.00;95118.75;4373526;32;20285;-76
2021/06/21 04:05:44;;;;;;;10.23;2.60;;;;;;;16.69;100.00;95124.19;4361713;32;20244;-77
2021/06/21 04:08:13;;;;;;;7.18;2.20;;;;;;;16.77;100.00;95110.41;4358646;33;20247;-76
2021/06/21 04:10:39;;;;;;;10.60;2.05;;;;;;;16.76;100.00;95119.22;4358966;32;20233;-76
2021/06/21 04:13:06;;;;;;;8.70;2.47;;;;;;;16.80;100.00;95125.81;4366851;32;20266;-77
2021/06/21 04:15:32;;;;;;;5.85;1.83;;;;;;;16.76;100.00;95124.47;4372514;32;20280;-76
2021/06/21 04:17:58;;;;;;;8.60;2.00;;;;;;;16.84;100.00;95135.00;4373604;32;20235;-78
2021/06/21 04:20:25;;;;;;;11.47;2.47;;;;;;;16.87;100.00;95136.47;4373698;32;20279;-76
2021/06/21 04:22:50;;;;;;;8.13;2.37;;;;;;;16.87;99.59;95137.31;4373187;32;20228;-75
2021/06/21 04:25:18;;;;;;;7.87;2.30;;;;;;;16.85;99.11;95125.34;4373281;32;20265;-72
2021/06/21 04:27:44;;;;;;;5.10;2.03;;;;;;;16.88;98.39;95117.19;4368441;32;20244;-72
2021/06/21 04:30:12;;;;;;;8.40;2.03;;;;;;;16.77;99.56;95127.91;4367294;32;20223;-71
2021/06/21 04:32:39;;;;;;;6.90;2.05;;;;;;;16.73;99.59;95129.13;4373464;32;20610;-70
2021/06/21 04:35:07;;;;;;;9.85;2.47;;;;;;;16.73;99.18;95126.53;4373421;32;20223;-71
2021/06/21 04:37:33;;;;;;;12.10;2.70;;;;;;;16.76;97.47;95134.06;4372050;32;20250;-71
2021/06/21 04:40:00;;;;;;;7.97;2.47;;;;;;;16.70;99.08;95135.47;4373031;32;20577;-71
2021/06/21 04:42:27;;;;;;;13.13;2.70;;;;;;;16.69;98.83;95129.44;4373171;32;20253;-71
2021/06/21 04:44:53;;;;;;;8.95;2.62;;;;;;;16.62;100.00;95138.84;4373140;32;20268;-71
2021/06/21 04:47:20;;;;;;;6.77;2.37;;;;;;;16.63;100.00;95140.47;4372921;32;20543;-71
2021/06/21 04:49:46;;;;;;;8.15;2.50;;;;;;;16.67;100.00;95144.44;4373280;32;20243;-71
2021/06/21 04:52:12;;;;;;;14.13;2.70;;;;;;;16.76;100.00;95137.53;4358234;32;20685;-70
2021/06/21 04:54:38;;;;;;;13.00;2.37;;;;;;;16.78;100.00;95150.44;4358009;32;20563;-71
2021/06/21 04:57:04;;;;;;;22.90;3.10;;;;;;;16.91;100.00;95136.03;4365285;32;20268;-73
2021/06/21 04:59:31;;;;;;;13.82;2.83;;;;;;;16.85;100.00;95139.22;4358892;32;20570;-73
2021/06/21 05:01:56;;;;;;;11.52;2.50;;;;;;;16.77;100.00;95127.91;4357686;32;20229;-74
2021/06/21 05:04:22;;;;;;;6.97;2.37;;;;;;;16.78;100.00;95135.56;4357467;32;20237;-73
2021/06/21 05:06:47;;;;;;;12.83;2.27;;;;;;;16.82;100.00;95141.31;4356983;32;20300;-74
2021/06/21 05:09:13;;;;;;;6.67;2.20;;;;;;;17.03;100.00;95151.50;4358267;32;20221;-74
2021/06/21 05:11:38;;;;;;;9.13;2.55;;;;;;;17.01;100.00;95159.47;4358054;32;20258;-74
2021/06/21 05:14:03;;;;;;;9.20;2.30;;;;;;;17.04;100.00;95164.41;4357952;32;20225;-74
2021/06/21 05:16:30;;;;;;;8.27;2.10;;;;;;;17.14;100.00;95166.97;4357630;32;20217;-75
2021/06/21 05:18:56;;;;;;;9.07;2.12;;;;;;;17.04;100.00;95156.56;4358056;32;20229;-74
2021/06/21 05:21:21;;;;;;;8.77;2.10;;;;;;;17.02;100.00;95166.38;4357544;32;20263;-74
2021/06/21 05:23:47;;;;;;;12.43;2.40;;;;;;;17.03;100.00;95162.78;4358302;32;20279;-74
2021/06/21 05:26:12;;;;;;;10.20;2.23;;;;;;;17.11;100.00;95156.78;4357095;32;20258;-73
2021/06/21 05:28:38;;;;;;;9.13;2.53;;;;;;;17.12;99.85;95147.97;4357433;32;20623;-74
2021/06/21 05:31:03;;;;;;;10.95;2.42;;;;;;;17.21;100.00;95146.25;4357739;32;20280;-74
2021/06/21 05:33:30;;;;;;;7.37;2.12;;;;;;;17.36;100.00;95152.56;4357811;33;20632;-74
2021/06/21 05:35:55;;;;;;;5.22;2.17;;;;;;;17.40;99.67;95151.28;4357499;32;20318;-74
2021/06/21 05:38:21;;;;;;;8.10;2.40;;;;;;;17.67;100.00;95151.13;4357961;32;20233;-76
2021/06/21 05:40:46;;;;;;;12.80;2.73;;;;;;;17.79;98.98;95150.88;4357807;32;20216;-76
2021/06/21 05:43:12;;;;;;;15.93;2.85;;;;;;;17.69;97.20;95171.94;4357270;33;20274;-75
2021/06/21 05:45:37;;;;;;;9.07;2.03;;;;;;;17.80;97.71;95163.84;4357156;33;20259;-77
2021/06/21 05:48:04;;;;;;;15.43;2.23;;;;;;;18.01;96.98;95152.97;4365259;32;20571;-75
2021/06/21 05:50:31;;;;;;;7.20;2.20;;;;;;;18.11;95.01;95163.34;4372621;32;20266;-75
2021/06/21 05:52:57;;;;;;;10.27;2.37;;;;;;;18.19;93.15;95159.94;4372336;32;20261;-77
2021/06/21 05:55:23;;;;;;;12.00;2.47;;;;;;;17.95;93.68;95160.63;4373057;32;20231;-76
2021/06/21 05:57:49;;;;;;;9.75;2.30;;;;;;;17.79;94.42;95156.94;4370240;32;20230;-75
2021/06/21 06:00:16;;;;;;;10.88;3.00;;;;;;;17.82;93.36;95161.06;4357344;32;20283;-75
2021/06/21 06:02:42;;;;;;;7.75;2.00;;;;;;;17.79;95.42;95156.94;4356325;33;20275;-76
2021/06/21 06:05:08;;;;;;;8.27;2.13;;;;;;;17.85;95.67;95163.38;4357368;32;20632;-75
2021/06/21 06:07:35;;;;;;;10.52;2.62;;;;;;;18.06;95.99;95161.19;4357838;33;20229;-75
2021/06/21 06:10:00;;;;;;;7.60;2.42;;;;;;;17.99;95.10;95164.59;4359021;33;20229;-77
2021/06/21 06:12:26;;;;;;;9.65;2.70;;;;;;;18.12;93.29;95160.53;4358004;33;20263;-73
2021/06/21 06:14:51;;;;;;;11.83;2.93;;;;;;;18.03;94.88;95158.88;4359783;33;20288;-81
2021/06/21 06:17:17;;;;;;;7.77;2.10;;;;;;;18.17;95.84;95159.25;4365723;32;20580;-80
2021/06/21 06:19:42;;;;;;;12.07;2.40;;;;;;;18.36;95.55;95148.53;4365356;33;20286;-80
2021/06/21 06:22:08;;;;;;;9.88;2.30;;;;;;;18.66;92.33;95148.94;4364033;33;20247;-81
2021/06/21 06:24:35;;;;;;;10.52;2.58;;;;;;;18.73;94.24;95155.22;4363949;33;20294;-81
2021/06/21 06:27:02;;;;;;;9.50;2.20;;;;;;;18.99;89.28;95158.53;4361245;33;20649;-81
2021/06/21 06:29:29;;;;;;;10.25;2.62;;;;;;;18.83;92.57;95163.72;4358657;32;20583;-77
2021/06/21 06:31:55;;;;;;;9.50;2.37;;;;;;;18.72;91.24;95158.78;4356085;33;20711;-76
2021/06/21 06:34:22;;;;;;;8.83;2.33;;;;;;;18.87;93.17;95167.66;4358441;33;20248;-77
2021/06/21 06:36:47;;;;;;;6.53;2.58;;;;;;;18.97;92.24;95168.34;4357321;33;20236;-78
2021/06/21 06:39:12;;;;;;;10.93;2.70;;;;;;;19.04;91.51;95171.16;4368330;32;20234;-77
2021/06/21 06:41:39;;;;;;;11.65;2.67;;;;;;;19.20;90.41;95183.44;4375708;32;20215;-78
2021/06/21 06:44:05;;;;;;;10.13;2.33;;;;;;;19.33;91.02;95186.41;4375195;32;20715;-72
2021/06/21 06:46:31;;;;;;;11.77;2.42;;;;;;;19.71;89.15;95181.50;4375152;32;20227;-77
2021/06/21 06:48:56;;;;;;;11.33;2.20;;;;;;;19.82;88.69;95181.97;4375331;32;20268;-75
2021/06/21 06:51:23;;;;;;;7.63;2.23;;;;;;;19.74;86.05;95181.16;4359753;32;20287;-75
2021/06/21 06:54:01;;;;;;;8.32;2.20;;;;;;;19.78;84.17;95182.47;4360122;32;20682;-76
2021/06/21 06:59:12;;;;;;;7.43;2.47;;;;;;;20.24;83.66;95169.50;4359700;32;20251;-76
2021/06/21 07:01:38;;;;;;;11.10;2.30;;;;;;;19.94;83.17;95169.28;4359770;32;20281;-77
2021/06/21 07:04:03;;;;;;;13.63;2.57;;;;;;;19.80;82.65;95172.59;4360532;32;20667;-78
2021/06/21 07:06:29;;;;;;;7.57;2.10;;;;;;;19.46;85.87;95175.41;4358440;33;20251;-77
2021/06/21 07:08:54;;;;;;;10.35;2.47;;;;;;;19.80;84.45;95169.97;4360424;32;20599;-77
2021/06/21 07:11:20;;;;;;;5.07;1.87;;;;;;;19.79;84.78;95177.03;4360047;32;20233;-78
2021/06/21 07:13:45;;;;;;;6.95;2.42;;;;;;;20.14;83.57;95177.63;4360800;33;20224;-79
2021/06/21 07:16:12;;;;;;;9.25;2.30;;;;;;;20.21;81.75;95172.47;4359510;33;20236;-79
2021/06/21 07:18:38;;;;;;;6.07;2.20;;;;;;;20.21;82.27;95168.06;4360160;33;20805;-78
2021/06/21 07:21:04;;;;;;;8.63;2.53;;;;;;;20.16;82.02;95172.19;4359775;33;20278;-78
2021/06/21 07:23:29;;;;;;;7.28;2.35;;;;;;;20.22;82.48;95177.59;4359974;33;20225;-80
2021/06/21 07:25:55;;;;;;;19.03;2.47;;;;;;;20.16;80.29;95167.72;4359160;33;20623;-78
2021/06/21 07:28:20;;;;;;;6.10;2.00;;;;;;;20.51;81.16;95173.56;4360090;32;20310;-78
2021/06/21 07:30:45;;;;;;;4.93;1.87;;;;;;;20.83;78.96;95167.28;4359935;33;20232;-80
2021/06/21 07:33:12;;;;;;;7.27;2.07;;;;;;;20.84;77.41;95168.09;4359041;33;20678;-78
2021/06/21 07:35:40;;;;;;;6.87;1.98;;;;;;;20.73;77.98;95171.97;4360210;32;20300;-79
2021/06/21 07:38:06;;;;;;;11.65;2.42;;;;;;;20.65;80.51;95174.63;4360414;32;20306;-79
2021/06/21 07:40:31;;;;;;;7.00;2.15;;;;;;;20.48;79.67;95166.78;4358717;33;20232;-78
2021/06/21 07:42:57;;;;;;;8.10;1.85;;;;;;;20.87;79.93;95167.75;4360262;32;20592;-79
2021/06/21 07:45:22;;;;;;;6.77;2.03;;;;;;;21.10;78.13;95159.84;4359479;32;20237;-78
2021/06/21 07:47:47;;;;;;;4.93;1.97;;;;;;;21.21;77.65;95168.19;4359174;32;20225;-78
2021/06/21 07:50:14;;;;;;;6.73;1.90;;;;;;;21.51;73.75;95163.03;4365944;32;20249;-78
2021/06/21 07:52:40;;;;;;;7.55;2.00;;;;;;;21.58;75.01;95166.59;4374004;32;20257;-78
2021/06/21 07:55:07;;;;;;;6.80;1.80;;;;;;;21.79;74.04;95163.25;4374383;32;20330;-81
2021/06/21 07:57:32;;;;;;;8.20;2.25;;;;;;;22.10;72.31;95163.09;4373970;32;20725;-79
2021/06/21 07:59:58;;;;;;;4.75;1.70;;;;;;;22.08;72.66;95169.53;4373013;32;20215;-78
2021/06/21 08:02:23;;;;;;;8.67;2.27;;;;;;;22.25;71.31;95168.41;4373687;32;20294;-78
2021/06/21 08:04:50;;;;;;;6.20;2.15;;;;;;;22.40;75.32;95181.56;4373835;32;20272;-78
2021/06/21 08:07:17;;;;;;;7.75;2.20;;;;;;;22.33;72.08;95172.75;4373931;32;20293;-78
2021/06/21 08:09:42;;;;;;;7.72;2.20;;;;;;;22.10;71.46;95168.37;4374778;32;20677;-78
2021/06/21 08:12:09;;;;;;;4.43;1.80;;;;;;;22.18;70.29;95178.03;4372820;32;20244;-81
2021/06/21 08:14:34;;;;;;;15.43;2.05;;;;;;;22.33;72.85;95178.84;4374262;32;20655;-78
2021/06/21 08:16:59;;;;;;;6.90;2.03;;;;;;;22.39;69.43;95172.81;4374289;32;20254;-79
2021/06/21 08:19:25;;;;;;;4.47;1.70;;;;;;;22.24;70.78;95174.66;4373382;32;20298;-78
2021/06/21 08:21:50;;;;;;;6.50;1.95;;;;;;;22.51;68.68;95174.97;4373907;32;20253;-78
2021/06/21 08:24:17;;;;;;;4.97;1.90;;;;;;;22.79;68.81;95183.84;4372649;32;20266;-78
2021/06/21 08:26:42;;;;;;;8.13;2.20;;;;;;;22.86;70.55;95174.19;4373072;32;20273;-78
2021/06/21 08:29:08;;;;;;;11.90;2.08;;;;;;;22.88;67.51;95181.94;4364629;32;20229;-78
2021/06/21 08:31:34;;;;;;;4.70;1.80;;;;;;;22.45;68.06;95187.09;4357268;33;20279;-78
2021/06/21 08:34:00;;;;;;;7.83;1.90;;;;;;;22.65;68.17;95196.06;4357769;33;20229;-79
2021/06/21 08:36:26;;;;;;;8.20;2.17;;;;;;;22.96;67.02;95194.22;4357870;33;20624;-79
2021/06/21 08:38:51;;;;;;;6.47;1.67;;;;;;;23.21;66.10;95198.13;4359253;32;20330;-77
2021/06/21 08:41:18;;;;;;;5.53;1.60;;;;;;;23.27;62.45;95197.38;4358904;32;20613;-78
2021/06/21 08:43:45;;;;;;;4.77;1.50;;;;;;;23.42;59.89;95202.59;4357686;32;20339;-79
2021/06/21 08:46:10;;;;;;;5.53;1.75;;;;;;;23.40;61.48;95200.16;4360402;32;20237;-78
2021/06/21 08:48:41;;;;;;;6.10;1.80;;;;;;;23.48;61.85;95201.03;4358316;33;20320;-78
2021/06/21 08:51:06;;;;;;;5.20;1.70;;;;;;;23.57;58.48;95184.03;4351210;32;20231;-76
2021/06/21 08:53:32;;;;;;;3.53;1.37;;;;;;;24.28;57.92;95182.09;4356877;32;20307;-78
2021/06/21 08:55:57;;;;;;;4.67;1.37;;;;;;;24.46;58.43;95188.75;4363862;32;20616;-79
2021/06/21 08:58:24;;;;;;;5.82;1.90;;;;;;;23.75;60.47;95199.47;4358484;32;20228;-78
2021/06/21 09:00:50;;;;;;;4.50;1.52;;;;;;;23.73;61.92;95196.19;4359459;32;20228;-79
2021/06/21 09:03:16;;;;;;;5.63;1.73;;;;;;;23.59;59.48;95192.59;4358158;33;20350;-78
2021/06/21 09:05:42;;;;;;;6.03;1.90;;;;;;;23.79;59.68;95190.13;4358132;33;20237;-77
2021/06/21 09:08:09;;;;;;;6.60;1.80;;;;;;;23.95;59.34;95200.41;4361283;32;20219;-77
2021/06/21 09:10:35;;;;;;;4.72;1.40;;;;;;;23.65;58.98;95197.91;4358903;32;20228;-78
2021/06/21 09:13:12;;;;;;;3.62;1.48;;;;;;;23.77;57.35;95192.13;4359439;32;20288;-76
2021/06/21 09:15:40;;;;;;;3.78;1.45;;;;;;;23.96;57.36;95193.31;4353298;33;20233;-77
2021/06/21 09:18:35;;;;;;;5.45;1.67;;;;;;;24.51;57.36;95187.16;4359700;32;20229;-77
2021/06/21 09:21:21;;;;;;;6.37;1.95;;;;;;;24.75;57.71;95196.41;4365206;32;20243;-77
2021/06/21 09:23:48;;;;;;;7.85;1.73;;;;;;;25.46;56.38;95197.81;4371873;32;20242;-75
2021/06/21 09:26:16;;;;;;;5.65;1.60;;;;;;;25.81;53.96;95193.19;4372538;32;20223;-75
2021/06/21 09:28:41;;;;;;;4.03;1.77;;;;;;;25.82;53.25;95195.62;4365276;32;20213;-75
2021/06/21 09:31:08;;;;;;;5.93;2.00;;;;;;;25.77;53.15;95195.41;4353330;32;20293;-77
2021/06/21 09:33:33;;;;;;;5.68;1.62;;;;;;;25.51;53.11;95187.41;4371324;32;20297;-77
2021/06/21 09:35:59;;;;;;;5.10;1.80;;;;;;;25.29;53.38;95192.94;4371133;32;20211;-74
2021/06/21 09:38:24;;;;;;;6.18;1.62;;;;;;;25.15;53.30;95191.25;4370903;32;20258;-74
2021/06/21 09:40:52;;;;;;;6.03;1.75;;;;;;;25.32;54.92;95186.38;4363200;32;20221;-75
2021/06/21 09:43:24;;;;;;;6.37;1.80;;;;;;;25.19;56.47;95189.84;4357603;33;20295;-75
2021/06/21 09:46:10;;;;;;;2.95;1.62;;;;;;;25.51;53.97;95192.72;4357779;33;20552;-74
2021/06/21 09:48:37;;;;;;;6.28;1.67;;;;;;;25.54;52.17;95192.31;4357571;32;20264;-75
2021/06/21 09:51:17;;;;;;;6.70;1.70;;;;;;;25.60;48.97;95199.47;4358016;33;20217;-75
2021/06/21 09:53:51;;;;;;;4.15;1.70;;;;;;;25.75;51.90;95186.00;4357923;33;20503;-76
2021/06/21 09:56:29;;;;;;;3.53;1.50;;;;;;;25.49;54.66;95197.44;4357353;33;20221;-76
2021/06/21 09:58:54;;;;;;;5.00;1.67;;;;;;;25.63;52.69;95201.72;4357944;33;20256;-77
2021/06/21 10:01:27;;;;;;;3.70;1.37;;;;;;;25.52;49.93;95191.72;4358065;32;20252;-76
2021/06/21 10:03:52;;;;;;;4.97;1.70;;;;;;;25.13;50.53;95193.28;4358104;33;20532;-77
2021/06/21 10:06:17;;;;;;;2.95;1.45;;;;;;;25.44;49.31;95192.75;4356101;33;20270;-77
2021/06/21 10:08:46;;;;;;;4.07;1.30;;;;;;;25.57;49.29;95194.56;4356438;33;20584;-77
2021/06/21 10:11:28;;;;;;;5.57;1.80;;;;;;;25.33;49.63;95194.16;4357368;32;20644;-77
2021/06/21 10:13:54;;;;;;;5.80;1.65;;;;;;;25.48;49.94;95201.09;4356851;32;20221;-77
2021/06/21 10:16:21;;;;;;;4.95;1.67;;;;;;;25.57;47.51;95191.91;4360328;32;20216;-77
2021/06/21 10:18:46;;;;;;;5.20;1.62;;;;;;;25.84;47.89;95192.75;4360408;33;20225;-77
2021/06/21 10:21:12;;;;;;;3.47;1.30;;;;;;;25.82;46.79;95192.16;4360503;33;20265;-77
2021/06/21 10:23:37;;;;;;;5.03;1.53;;;;;;;25.25;49.96;95190.84;4360691;32;20656;-77
2021/06/21 10:26:03;;;;;;;3.10;1.40;;;;;;;25.53;51.31;95185.41;4360442;32;20278;-77
2021/06/21 10:28:29;;;;;;;3.95;1.83;;;;;;;26.03;51.10;95177.84;4360787;32;20687;-79
2021/06/21 10:30:55;;;;;;;4.33;1.57;;;;;;;25.70;49.38;95177.88;4361099;32;20282;-79
2021/06/21 10:33:22;;;;;;;3.03;1.40;;;;;;;25.29;49.03;95178.84;4361843;32;20216;-79
2021/06/21 10:35:47;;;;;;;4.53;1.48;;;;;;;24.92;49.29;95177.50;4360021;33;20689;-78
2021/06/21 10:38:15;;;;;;;3.47;1.23;;;;;;;25.00;50.83;95175.50;4360477;33;20229;-79
2021/06/21 10:40:54;;;;;;;3.87;1.50;;;;;;;25.50;48.86;95177.84;4361457;32;20225;-79
2021/06/21 10:43:53;;;;;;;2.83;1.23;;;;;;;26.16;51.05;95169.88;4360142;33;20255;-79
2021/06/21 10:46:24;;;;;;;4.37;1.40;;;;;;;26.50;49.19;95165.31;4367544;32;20250;-77
2021/06/21 10:49:30;;;;;;;5.28;1.58;;;;;;;26.29;45.67;95163.69;4364556;32;20225;-78
2021/06/21 10:51:56;;;;;;;5.95;1.60;;;;;;;25.99;47.89;95176.63;4364367;32;20650;-77
2021/06/21 10:54:23;;;;;;;2.40;1.27;;;;;;;26.22;46.50;95170.88;4364325;32;20213;-78
2021/06/21 10:56:51;;;;;;;2.70;1.30;;;;;;;26.73;50.11;95176.22;4362515;32;20221;-78
2021/06/21 10:59:18;;;;;;;5.30;1.48;;;;;;;26.30;46.31;95183.94;4363769;32;20220;-78
2021/06/21 11:01:45;;;;;;;4.85;1.73;;;;;;;25.86;47.41;95184.63;4368653;32;20249;-77
2021/06/21 11:04:31;;;;;;;2.70;1.27;;;;;;;26.05;47.40;95189.06;4362445;32;20547;-78
2021/06/21 11:07:09;;;;;;;4.70;1.45;;;;;;;25.53;46.95;95196.81;4365043;32;20223;-78
2021/06/21 11:09:40;;;;;;;4.05;1.87;;;;;;;26.04;52.38;95184.78;4357098;32;20623;-78
2021/06/21 11:12:41;;;;;;;2.92;1.30;;;;;;;25.35;51.81;95194.75;4364809;32;20634;-79
2021/06/21 11:15:17;;;;;;;4.80;1.42;;;;;;;25.71;56.31;95192.75;4367427;32;20223;-78
2021/06/21 11:17:57;;;;;;;3.05;1.50;;;;;;;25.88;53.50;95191.31;4367119;32;20223;-78
2021/06/21 11:20:42;;;;;;;3.97;1.50;;;;;;;26.17;56.73;95190.06;4366010;32;20229;-78
2021/06/21 11:23:09;;;;;;;2.40;1.20;;;;;;;26.12;57.10;95186.41;4368619;32;20244;-79
2021/06/21 11:25:37;;;;;;;3.28;1.10;;;;;;;26.28;54.41;95186.78;4368655;32;20286;-78
2021/06/21 11:28:04;;;;;;;3.95;1.40;;;;;;;26.40;53.92;95189.63;4362191;32;20229;-77
2021/06/21 11:30:39;;;;;;;2.42;1.17;;;;;;;26.18;51.45;95194.38;4368714;32;20299;-78
2021/06/21 11:33:09;;;;;;;3.83;1.42;;;;;;;26.53;56.89;95191.44;4366214;32;20281;-76